createdAt,value
2022-08-12T00:01:04.688Z,17.10
2022-08-12T00:03:51.355Z,17.10
2022-08-12T00:06:40.255Z,17.10
2022-08-12T00:09:26.797Z,17.10
2022-08-12T00:12:13.262Z,17.00
2022-08-12T00:14:59.050Z,17.00
2022-08-12T00:17:44.754Z,16.90
2022-08-12T00:20:30.404Z,16.90
2022-08-12T00:23:17.007Z,16.90
2022-08-12T00:26:22.420Z,16.80
2022-08-12T00:29:11.358Z,16.80
2022-08-12T00:31:57.642Z,16.70
2022-08-12T00:34:43.099Z,16.70
2022-08-12T00:37:28.761Z,16.70
2022-08-12T00:40:15.391Z,16.60
2022-08-12T00:42:42.664Z,16.60
2022-08-12T00:45:10.672Z,16.50
2022-08-12T00:47:38.501Z,16.50
2022-08-12T00:50:06.744Z,16.50
2022-08-12T00:52:35.542Z,16.50
2022-08-12T00:55:04.546Z,16.40
2022-08-12T00:57:37.615Z,16.40
2022-08-12T01:00:09.589Z,16.40
2022-08-12T01:02:40.314Z,16.30
2022-08-12T01:05:32.492Z,16.30
2022-08-12T01:08:18.265Z,16.20
2022-08-12T01:11:05.342Z,16.20
2022-08-12T01:13:35.188Z,16.10
2022-08-12T01:16:04.721Z,16.10
2022-08-12T01:18:35.230Z,16.10
2022-08-12T01:21:38.227Z,16.10
2022-08-12T01:24:33.996Z,16.00
2022-08-12T01:27:03.507Z,16.00
2022-08-12T01:29:41.791Z,15.90
2022-08-12T01:32:14.813Z,15.90
2022-08-12T01:35:04.983Z,15.80
2022-08-12T01:37:36.780Z,15.70
2022-08-12T01:40:34.259Z,15.70
2022-08-12T01:42:57.093Z,15.70
2022-08-12T01:45:26.155Z,15.70
2022-08-12T01:48:19.463Z,15.60
2022-08-12T01:51:06.449Z,15.60
2022-08-12T01:54:04.440Z,15.50
2022-08-12T01:56:53.940Z,15.50
2022-08-12T01:59:47.464Z,15.50
2022-08-12T02:02:32.349Z,15.40
2022-08-12T02:05:35.836Z,15.40
2022-08-12T02:08:45.363Z,15.30
2022-08-12T02:11:28.346Z,15.30
2022-08-12T02:14:28.530Z,15.30
2022-08-12T02:17:13.801Z,15.20
2022-08-12T02:20:43.856Z,15.20
2022-08-12T02:23:15.151Z,15.20
2022-08-12T02:25:45.664Z,15.20
2022-08-12T02:28:12.844Z,15.10
2022-08-12T02:30:42.040Z,15.10
2022-08-12T02:33:11.238Z,15.00
2022-08-12T02:35:39.660Z,15.00
2022-08-12T02:38:09.263Z,15.00
2022-08-12T02:40:39.354Z,14.90
2022-08-12T02:43:15.026Z,15.00
2022-08-12T02:46:02.510Z,14.90
2022-08-12T02:48:46.824Z,14.90
2022-08-12T02:51:20.347Z,14.90
2022-08-12T02:54:02.945Z,14.80
2022-08-12T02:56:33.057Z,14.80
2022-08-12T02:59:01.418Z,14.80
2022-08-12T03:01:35.696Z,14.70
2022-08-12T03:04:26.592Z,14.70
2022-08-12T03:07:04.842Z,14.70
2022-08-12T03:09:42.177Z,14.70
2022-08-12T03:12:24.711Z,14.60
2022-08-12T03:14:53.159Z,14.60
2022-08-12T03:17:43.755Z,14.50
2022-08-12T03:20:14.249Z,14.50
2022-08-12T03:22:43.821Z,14.50
2022-08-12T03:25:18.932Z,14.50
2022-08-12T03:27:56.094Z,14.40
2022-08-12T03:30:32.591Z,14.40
2022-08-12T03:33:01.872Z,14.40
2022-08-12T03:35:40.931Z,14.30
2022-08-12T03:38:12.215Z,14.30
2022-08-12T03:41:34.617Z,14.30
2022-08-12T03:44:37.269Z,14.30
2022-08-12T03:47:39.609Z,14.30
2022-08-12T03:50:25.362Z,14.20
2022-08-12T03:53:11.084Z,14.20
2022-08-12T03:55:56.822Z,14.20
2022-08-12T03:58:42.422Z,14.20
2022-08-12T04:01:09.167Z,14.20
2022-08-12T04:03:52.365Z,14.20
2022-08-12T04:06:34.237Z,14.20
2022-08-12T04:09:01.613Z,14.20
2022-08-12T04:11:47.477Z,14.20
2022-08-12T04:14:20.663Z,14.20
2022-08-12T04:16:51.182Z,14.20
2022-08-12T04:19:19.330Z,14.20
2022-08-12T04:22:02.260Z,14.20
2022-08-12T04:24:35.246Z,14.20
2022-08-12T04:27:08.471Z,14.30
2022-08-12T04:30:31.838Z,14.30
2022-08-12T04:32:25.468Z,14.30
2022-08-12T04:34:53.151Z,14.30
2022-08-12T04:37:20.211Z,14.30
2022-08-12T04:39:48.363Z,14.40
2022-08-12T04:42:16.142Z,14.70
2022-08-12T04:44:43.379Z,15.10
2022-08-12T04:47:15.121Z,15.50
2022-08-12T04:49:45.094Z,15.90
2022-08-12T04:52:12.339Z,16.30
2022-08-12T04:54:39.201Z,16.50
2022-08-12T04:57:09.690Z,16.60
2022-08-12T04:59:47.140Z,16.60
2022-08-12T05:02:17.072Z,16.50
2022-08-12T05:04:53.197Z,16.40
2022-08-12T05:07:20.881Z,16.30
2022-08-12T05:10:00.670Z,16.20
2022-08-12T05:12:34.765Z,16.10
2022-08-12T05:15:01.785Z,16.20
2022-08-12T05:17:28.845Z,16.30
2022-08-12T05:19:58.036Z,16.60
2022-08-12T05:22:26.703Z,17.00
2022-08-12T05:24:54.446Z,17.70
2022-08-12T05:27:23.158Z,18.40
2022-08-12T05:30:07.264Z,19.10
2022-08-12T05:32:36.831Z,19.60
2022-08-12T05:35:07.100Z,20.00
2022-08-12T05:37:34.914Z,20.30
2022-08-12T05:40:08.272Z,20.70
2022-08-12T05:42:37.910Z,21.20
2022-08-12T05:45:05.815Z,21.60
2022-08-12T05:47:52.298Z,22.10
2022-08-12T05:50:20.814Z,22.30
2022-08-12T05:52:48.617Z,22.80
2022-08-12T05:55:15.805Z,23.40
2022-08-12T05:57:48.611Z,23.80
2022-08-12T06:00:17.469Z,24.00
2022-08-12T06:02:46.661Z,24.20
2022-08-12T06:05:14.143Z,24.50
2022-08-12T06:08:01.577Z,24.70
2022-08-12T06:10:32.000Z,24.90
2022-08-12T06:13:06.729Z,25.20
2022-08-12T06:15:37.964Z,25.50
2022-08-12T06:18:13.119Z,25.70
2022-08-12T06:20:43.791Z,26.00
2022-08-12T06:23:12.013Z,26.20
2022-08-12T06:25:39.041Z,26.20
2022-08-12T06:28:21.327Z,26.50
2022-08-12T06:31:08.618Z,27.10
2022-08-12T06:34:01.160Z,27.30
2022-08-12T06:36:29.606Z,27.50
2022-08-12T06:38:59.878Z,27.60
2022-08-12T06:42:05.081Z,27.80
2022-08-12T06:44:32.945Z,28.20
2022-08-12T06:47:01.343Z,28.70
2022-08-12T06:49:36.320Z,29.00
2022-08-12T06:52:04.620Z,29.50
2022-08-12T06:54:33.470Z,29.60
2022-08-12T06:58:05.133Z,29.90
2022-08-12T06:59:48.667Z,29.80
2022-08-12T07:02:15.568Z,30.00
2022-08-12T07:04:43.521Z,29.90
2022-08-12T07:07:11.077Z,30.30
2022-08-12T07:10:00.109Z,30.40
2022-08-12T07:12:27.451Z,30.60
2022-08-12T07:14:56.148Z,30.80
2022-08-12T07:17:22.976Z,30.80
2022-08-12T07:19:52.086Z,30.60
2022-08-12T07:22:19.215Z,30.90
2022-08-12T07:25:06.262Z,31.20
2022-08-12T07:27:40.777Z,31.10
2022-08-12T07:30:08.314Z,31.50
2022-08-12T07:32:35.617Z,31.80
2022-08-12T07:35:04.225Z,32.40
2022-08-12T07:37:31.519Z,32.30
2022-08-12T07:39:59.890Z,32.10
2022-08-12T07:42:29.739Z,32.00
2022-08-12T07:44:57.350Z,32.10
2022-08-12T07:47:26.939Z,32.40
2022-08-12T07:50:04.453Z,32.50
2022-08-12T07:52:39.475Z,32.80
2022-08-12T07:55:07.389Z,33.30
2022-08-12T07:57:35.724Z,33.40
2022-08-12T08:00:06.301Z,33.70
2022-08-12T08:02:33.881Z,34.00
2022-08-12T08:05:01.381Z,34.40
2022-08-12T08:07:30.760Z,34.70
2022-08-12T08:09:59.854Z,35.20
2022-08-12T08:12:47.608Z,35.40
2022-08-12T08:15:15.891Z,35.30
2022-08-12T08:17:57.903Z,35.20
2022-08-12T08:20:29.195Z,35.00
2022-08-12T08:22:57.771Z,34.90
2022-08-12T08:25:36.126Z,34.90
2022-08-12T08:28:23.749Z,34.60
2022-08-12T08:30:51.320Z,34.50
2022-08-12T08:33:24.375Z,34.80
2022-08-12T08:36:07.648Z,35.20
2022-08-12T08:38:57.555Z,35.30
2022-08-12T08:42:15.967Z,35.60
2022-08-12T08:44:38.493Z,35.80
2022-08-12T08:47:11.397Z,35.60
2022-08-12T08:49:39.927Z,35.70
2022-08-12T08:52:09.207Z,35.70
2022-08-12T08:54:37.979Z,35.70
2022-08-12T08:57:08.166Z,35.70
2022-08-12T08:59:35.511Z,36.00
2022-08-12T09:02:02.875Z,35.60
2022-08-12T09:05:13.644Z,35.30
2022-08-12T09:07:51.598Z,35.30
2022-08-12T09:10:09.217Z,35.10
2022-08-12T09:13:02.505Z,35.10
2022-08-12T09:15:36.474Z,35.10
2022-08-12T09:18:09.323Z,34.90
2022-08-12T09:20:38.931Z,35.10
2022-08-12T09:23:59.195Z,35.10
2022-08-12T09:26:04.434Z,35.00
2022-08-12T09:28:33.614Z,35.30
2022-08-12T09:31:00.985Z,35.50
2022-08-12T09:34:27.948Z,35.70
2022-08-12T09:36:31.169Z,36.00
2022-08-12T09:40:00.483Z,36.20
2022-08-12T09:42:40.311Z,35.80
2022-08-12T09:45:24.029Z,36.10
2022-08-12T09:47:59.189Z,35.80
2022-08-12T09:50:27.819Z,36.00
2022-08-12T09:53:15.845Z,36.10
2022-08-12T09:56:07.270Z,36.20
2022-08-12T09:58:57.375Z,36.60
2022-08-12T10:01:23.240Z,36.10
2022-08-12T10:04:03.462Z,35.70
2022-08-12T10:06:36.038Z,35.50
2022-08-12T10:09:08.295Z,34.80
2022-08-12T10:12:12.200Z,34.80
2022-08-12T10:14:50.199Z,34.80
2022-08-12T10:17:21.576Z,35.00
2022-08-12T10:19:52.571Z,34.90
2022-08-12T10:22:37.223Z,34.90
2022-08-12T10:26:35.248Z,35.10
2022-08-12T10:28:35.661Z,34.80
2022-08-12T10:31:05.185Z,34.50
2022-08-12T10:33:33.631Z,34.50
2022-08-12T10:36:12.460Z,34.90
2022-08-12T10:38:41.509Z,35.10
2022-08-12T10:41:58.029Z,34.90
2022-08-12T10:44:17.272Z,34.70
2022-08-12T10:46:49.441Z,34.80
2022-08-12T10:50:04.869Z,34.60
2022-08-12T10:52:34.138Z,34.80
2022-08-12T10:54:56.008Z,34.70
2022-08-12T10:58:13.658Z,34.60
2022-08-12T11:00:34.470Z,34.50
2022-08-12T11:04:24.694Z,34.50
2022-08-12T11:07:05.007Z,34.20
2022-08-12T11:08:43.517Z,33.90
2022-08-12T11:12:07.512Z,34.00
2022-08-12T11:14:05.866Z,34.10
2022-08-12T11:16:33.376Z,34.00
2022-08-12T11:19:02.565Z,34.10
2022-08-12T11:21:56.607Z,34.10
2022-08-12T11:24:30.320Z,34.20
2022-08-12T11:27:00.444Z,34.10
2022-08-12T11:30:02.302Z,34.10
2022-08-12T11:32:15.978Z,34.10
2022-08-12T11:34:52.564Z,34.20
2022-08-12T11:37:26.012Z,34.20
2022-08-12T11:42:35.781Z,34.60
2022-08-12T11:45:05.459Z,34.50
2022-08-12T11:47:40.146Z,34.70
2022-08-12T11:50:07.916Z,34.70
2022-08-12T11:52:56.392Z,34.30
2022-08-12T11:55:25.242Z,34.50
2022-08-12T11:58:19.782Z,34.50
2022-08-12T12:03:43.807Z,34.70
2022-08-12T12:06:16.893Z,34.30
2022-08-12T12:08:50.036Z,33.90
2022-08-12T12:11:27.418Z,33.80
2022-08-12T12:14:14.392Z,33.50
2022-08-12T12:16:49.883Z,33.10
2022-08-12T12:19:17.813Z,33.10
2022-08-12T12:21:47.359Z,33.20
2022-08-12T12:24:21.524Z,33.10
2022-08-12T12:27:00.045Z,33.20
2022-08-12T12:30:19.922Z,33.60
2022-08-12T12:32:29.443Z,33.70
2022-08-12T12:35:18.424Z,33.80
2022-08-12T12:38:05.194Z,33.80
2022-08-12T12:40:41.085Z,33.90
2022-08-12T12:43:09.091Z,33.70
2022-08-12T12:45:39.276Z,33.70
2022-08-12T12:48:08.601Z,33.80
2022-08-12T12:50:42.734Z,33.50
2022-08-12T12:54:06.335Z,33.40
2022-08-12T12:56:15.406Z,33.10
2022-08-12T12:58:43.496Z,33.10
2022-08-12T13:01:26.542Z,33.10
2022-08-12T13:04:02.208Z,33.20
2022-08-12T13:06:30.806Z,33.30
2022-08-12T13:09:03.147Z,33.20
2022-08-12T13:11:41.087Z,33.20
2022-08-12T13:14:12.889Z,33.10
2022-08-12T13:16:54.655Z,33.10
2022-08-12T13:19:25.425Z,33.00
2022-08-12T13:22:18.987Z,33.00
2022-08-12T13:24:51.860Z,32.70
2022-08-12T13:27:20.727Z,32.70
2022-08-12T13:29:47.994Z,32.70
2022-08-12T13:32:28.401Z,32.50
2022-08-12T13:35:04.251Z,32.30
2022-08-12T13:37:54.633Z,32.00
2022-08-12T13:40:24.616Z,31.60
2022-08-12T13:42:53.387Z,31.30
2022-08-12T13:45:20.584Z,31.20
2022-08-12T13:47:58.594Z,31.20
2022-08-12T13:50:36.581Z,31.20
2022-08-12T13:53:23.457Z,31.20
2022-08-12T13:56:01.466Z,31.10
2022-08-12T13:58:30.641Z,31.00
2022-08-12T14:00:59.552Z,30.90
2022-08-12T14:03:28.427Z,30.90
2022-08-12T14:06:15.391Z,30.90
2022-08-12T14:08:43.419Z,30.90
2022-08-12T14:11:12.257Z,30.70
2022-08-12T14:14:04.776Z,30.80
2022-08-12T14:16:37.781Z,30.90
2022-08-12T14:19:22.177Z,30.80
2022-08-12T14:22:01.048Z,30.70
2022-08-12T14:24:40.515Z,30.70
2022-08-12T14:27:10.769Z,30.60
2022-08-12T14:30:04.730Z,30.70
2022-08-12T14:32:34.605Z,30.60
2022-08-12T14:35:09.914Z,30.60
2022-08-12T14:37:58.197Z,30.50
2022-08-12T14:40:27.879Z,30.40
2022-08-12T14:42:57.031Z,30.40
2022-08-12T14:45:37.199Z,30.30
2022-08-12T14:48:14.916Z,30.20
2022-08-12T14:51:02.649Z,30.20
2022-08-12T14:59:57.131Z,30.20
2022-08-12T15:02:19.639Z,30.20
2022-08-12T15:04:58.906Z,30.20
2022-08-12T15:07:43.795Z,30.10
2022-08-12T15:10:14.681Z,30.10
2022-08-12T15:12:52.585Z,30.10
2022-08-12T15:15:21.683Z,30.10
2022-08-12T15:17:59.466Z,30.00
2022-08-12T15:20:32.763Z,29.90
2022-08-12T15:23:17.409Z,29.90
2022-08-12T15:25:48.310Z,29.80
2022-08-12T15:28:21.370Z,29.80
2022-08-12T15:30:52.248Z,29.70
2022-08-12T15:33:21.162Z,29.70
2022-08-12T15:35:53.935Z,29.60
2022-08-12T15:38:25.164Z,29.60
2022-08-12T15:40:53.979Z,29.60
2022-08-12T15:43:35.501Z,29.60
2022-08-12T15:46:15.209Z,29.60
2022-08-12T15:48:47.087Z,29.60
2022-08-12T15:51:58.448Z,29.50
2022-08-12T15:54:33.197Z,29.60
2022-08-12T15:57:03.375Z,29.50
2022-08-12T16:00:04.562Z,29.50
2022-08-12T16:02:21.242Z,29.50
2022-08-12T16:04:50.538Z,29.40
2022-08-12T16:07:30.016Z,29.40
2022-08-12T16:10:08.174Z,29.40
2022-08-12T16:12:54.456Z,29.30
2022-08-12T16:15:26.427Z,29.30
2022-08-12T16:18:18.945Z,29.40
2022-08-12T16:20:46.727Z,29.30
2022-08-12T16:23:36.439Z,29.30
2022-08-12T16:26:15.330Z,29.20
2022-08-12T16:28:47.997Z,29.20
2022-08-12T16:31:23.024Z,29.20
2022-08-12T16:33:59.921Z,29.10
2022-08-12T16:36:29.362Z,29.10
2022-08-12T16:38:56.649Z,29.00
2022-08-12T16:41:23.855Z,28.90
2022-08-12T16:43:53.042Z,28.90
2022-08-12T16:46:31.422Z,28.90
2022-08-12T16:49:09.124Z,28.90
2022-08-12T16:51:47.002Z,28.80
2022-08-12T16:54:26.715Z,28.80
2022-08-12T16:57:09.611Z,28.80
2022-08-12T16:59:53.228Z,28.70
2022-08-12T17:02:33.802Z,28.70
2022-08-12T17:05:04.136Z,28.70
2022-08-12T17:07:34.638Z,28.60
2022-08-12T17:10:09.052Z,28.60
2022-08-12T17:12:37.610Z,28.50
2022-08-12T17:15:50.982Z,28.50
2022-08-12T17:18:15.253Z,28.40
2022-08-12T17:20:48.851Z,28.40
2022-08-12T17:23:21.631Z,28.30
2022-08-12T17:25:53.105Z,28.30
2022-08-12T17:28:22.655Z,28.20
2022-08-12T17:30:57.502Z,28.20
2022-08-12T17:33:33.684Z,28.20
2022-08-12T17:36:03.192Z,28.20
2022-08-12T17:38:30.683Z,28.10
2022-08-12T17:40:58.169Z,28.10
2022-08-12T17:43:57.237Z,28.00
2022-08-12T17:46:23.571Z,28.00
2022-08-12T17:48:59.482Z,27.90
2022-08-12T17:51:31.546Z,27.90
2022-08-12T17:54:11.675Z,27.80
2022-08-12T17:56:41.119Z,27.80
2022-08-12T17:59:12.599Z,27.70
2022-08-12T18:01:45.319Z,27.60
2022-08-12T18:04:22.051Z,27.50
2022-08-12T18:06:52.083Z,27.50
2022-08-12T18:09:20.438Z,27.40
2022-08-12T18:12:09.375Z,27.40
2022-08-12T18:14:37.964Z,27.30
2022-08-12T18:17:10.050Z,27.20
2022-08-12T18:20:04.259Z,27.20
2022-08-12T18:22:30.622Z,27.10
2022-08-12T18:25:05.191Z,27.00
2022-08-12T18:27:43.165Z,27.00
2022-08-12T18:30:20.741Z,26.80
2022-08-12T18:33:04.548Z,26.70
2022-08-12T18:35:47.573Z,26.60
2022-08-12T18:38:22.036Z,26.50
2022-08-12T18:41:09.748Z,26.40
2022-08-12T18:43:59.029Z,26.30
2022-08-12T18:46:47.238Z,26.20
2022-08-12T18:49:31.844Z,26.10
2022-08-12T18:52:04.159Z,26.00
2022-08-12T18:54:35.633Z,26.00
2022-08-12T18:57:16.310Z,25.90
2022-08-12T19:00:00.076Z,25.80
2022-08-12T19:02:36.190Z,25.70
2022-08-12T19:05:10.790Z,25.50
2022-08-12T19:08:01.344Z,25.40
2022-08-12T19:10:31.822Z,25.30
2022-08-12T19:13:23.114Z,25.10
2022-08-12T19:15:57.493Z,25.10
2022-08-12T19:18:29.988Z,24.90
2022-08-12T19:21:11.734Z,24.70
2022-08-12T19:23:42.604Z,24.50
2022-08-12T19:26:12.741Z,24.30
2022-08-12T19:28:40.826Z,24.20
2022-08-12T19:31:45.229Z,24.00
2022-08-12T19:37:38.776Z,23.70
2022-08-12T19:40:31.392Z,23.60
2022-08-12T19:43:20.876Z,23.50
2022-08-12T19:45:56.197Z,23.40
2022-08-12T19:48:27.772Z,23.30
2022-08-12T19:50:57.628Z,23.10
2022-08-12T19:53:27.507Z,23.00
2022-08-12T19:55:57.420Z,22.90
2022-08-12T19:58:25.263Z,22.70
2022-08-12T20:00:55.184Z,22.60
2022-08-12T20:03:39.592Z,22.50
2022-08-12T20:06:15.263Z,22.40
2022-08-12T20:08:48.603Z,22.30
2022-08-12T20:12:14.234Z,22.10
2022-08-12T20:14:07.441Z,22.00
2022-08-12T20:19:28.625Z,21.90
2022-08-12T20:22:24.114Z,21.80
2022-08-12T20:24:57.980Z,21.70
2022-08-12T20:28:02.749Z,21.70
2022-08-12T20:30:15.841Z,21.60
2022-08-12T20:32:56.545Z,21.50
2022-08-12T20:36:06.021Z,21.50
2022-08-12T20:38:26.450Z,21.40
2022-08-12T20:40:55.796Z,21.30
2022-08-12T20:43:28.109Z,21.20
2022-08-12T20:45:58.517Z,21.10
2022-08-12T20:48:29.807Z,21.10
2022-08-12T20:51:04.055Z,21.00
2022-08-12T20:53:57.496Z,20.90
2022-08-12T20:56:30.973Z,20.80
2022-08-12T20:59:00.072Z,20.80
2022-08-12T21:01:46.706Z,20.70
2022-08-12T21:04:35.615Z,20.60
2022-08-12T21:07:09.486Z,20.50
2022-08-12T21:09:41.466Z,20.40
2022-08-12T21:12:27.548Z,20.40
2022-08-12T21:15:24.126Z,20.30
2022-08-12T21:18:11.778Z,20.20
2022-08-12T21:20:54.281Z,20.10
2022-08-12T21:23:22.992Z,20.00
2022-08-12T21:25:56.335Z,20.00
2022-08-12T21:28:27.453Z,20.00
2022-08-12T21:31:11.568Z,19.90
2022-08-12T21:34:06.639Z,19.80
2022-08-12T21:36:35.036Z,19.80
2022-08-12T21:39:19.322Z,19.70
2022-08-12T21:41:50.312Z,19.70
2022-08-12T21:45:43.577Z,19.60
2022-08-12T21:47:22.343Z,19.50
2022-08-12T21:50:06.528Z,19.50
2022-08-12T21:52:42.107Z,19.40
2022-08-12T21:55:19.506Z,19.40
2022-08-12T21:57:54.366Z,19.40
2022-08-12T22:00:34.389Z,19.30
2022-08-12T22:04:03.437Z,19.30
2022-08-12T22:06:31.829Z,19.20
2022-08-12T22:09:16.175Z,19.20
2022-08-12T22:11:56.298Z,19.10
2022-08-12T22:14:29.897Z,19.00
2022-08-12T22:16:58.429Z,19.00
2022-08-12T22:19:26.983Z,18.90
2022-08-12T22:21:55.769Z,18.90
2022-08-12T22:24:26.638Z,18.90
2022-08-12T22:27:08.371Z,18.80
2022-08-12T22:30:07.765Z,18.80
2022-08-12T22:32:47.343Z,18.80
2022-08-12T22:35:56.023Z,18.70
2022-08-12T22:38:20.957Z,18.70
2022-08-12T22:40:49.542Z,18.60
2022-08-12T22:43:36.040Z,18.60
2022-08-12T22:46:26.543Z,18.50
2022-08-12T22:48:57.055Z,18.50
2022-08-12T22:51:24.277Z,18.50
2022-08-12T22:53:54.369Z,18.40
2022-08-12T22:56:30.776Z,18.40
2022-08-12T22:59:02.607Z,18.30
2022-08-12T23:02:01.042Z,18.30
2022-08-12T23:04:27.642Z,18.30
2022-08-12T23:06:58.421Z,18.20
2022-08-12T23:09:44.807Z,18.20
2022-08-12T23:12:39.205Z,18.20
2022-08-12T23:15:13.369Z,18.20
2022-08-12T23:17:41.629Z,18.10
2022-08-12T23:20:10.980Z,18.10
2022-08-12T23:22:38.545Z,18.10
2022-08-12T23:25:20.898Z,18.00
2022-08-12T23:28:30.246Z,17.90
2022-08-12T23:31:04.568Z,17.90
2022-08-12T23:34:00.681Z,17.80
2022-08-12T23:36:31.691Z,17.80
2022-08-12T23:40:14.371Z,17.70
2022-08-12T23:42:16.412Z,17.70
2022-08-12T23:44:43.925Z,17.70
2022-08-12T23:47:12.752Z,17.70
2022-08-12T23:49:58.920Z,17.70
2022-08-12T23:52:34.731Z,17.70
2022-08-12T23:55:25.161Z,17.70
2022-08-12T23:58:22.423Z,17.80
